< < Back
Terminal Aerodrome Forecast


Current Version              Previous Versions:   1  2  3  4  5  6  7  8  9  

Terminal Aerodrome Forecast

186
FTUS42 KILM 071120
TAFILM
TAF
KILM 071120Z 0712/0812 21005KT P6SM SCT250
     FM071600 22008KT P6SM VCTS BKN030CB
     FM072100 19009KT P6SM BKN250
     FM080000 20007KT P6SM SCT250=

Latest METAR

633
SAUS70 KWBC 071300 RRC
MTRILM
METAR KILM 071253Z 23009KT 10SM CLR 28/22 A3016 RMK AO2 SLP212
T02780222


USA.gov is the U.S. government's official web portal to all federal, state and local government web resources and services.